createdAt,value
2023-03-29T00:00:16.812Z,9.279922
2023-03-29T00:01:35.887Z,9.279880
2023-03-29T00:02:17.821Z,9.279919
2023-03-29T00:03:17.042Z,9.279889
2023-03-29T00:04:16.744Z,9.279983
2023-03-29T00:05:16.706Z,9.279935
2023-03-29T00:06:16.681Z,9.279993
2023-03-29T00:07:16.690Z,9.279926
2023-03-29T00:08:16.649Z,9.279970
2023-03-29T00:09:16.658Z,9.279944
2023-03-29T00:10:16.617Z,9.279969
2023-03-29T00:11:16.602Z,9.280001
2023-03-29T00:12:16.601Z,9.280025
2023-03-29T00:13:16.557Z,9.279915
2023-03-29T00:14:16.541Z,9.279992
2023-03-29T00:15:16.523Z,9.280044
2023-03-29T00:16:16.550Z,9.279931
2023-03-29T00:17:16.511Z,9.279970
2023-03-29T00:18:16.465Z,9.279950
2023-03-29T00:19:16.448Z,9.279945
2023-03-29T00:20:16.430Z,9.280076
2023-03-29T00:21:16.414Z,9.279999
2023-03-29T00:22:16.429Z,9.279934
2023-03-29T00:23:16.375Z,9.279860
2023-03-29T00:24:16.358Z,9.279842
2023-03-29T00:25:16.342Z,9.279922
2023-03-29T00:26:16.326Z,9.279934
2023-03-29T00:27:16.337Z,9.279943
2023-03-29T00:28:16.285Z,9.279949
2023-03-29T00:29:16.266Z,9.279890
2023-03-29T00:30:16.245Z,9.279943
2023-03-29T00:31:16.254Z,9.279942
2023-03-29T00:32:16.236Z,9.279946
2023-03-29T00:33:16.186Z,9.279856
2023-03-29T00:34:16.171Z,9.279850
2023-03-29T00:35:16.157Z,9.279898
2023-03-29T00:36:16.135Z,9.280014
2023-03-29T00:37:16.146Z,9.279870
2023-03-29T00:38:16.098Z,9.279916
2023-03-29T00:39:16.086Z,9.279949
2023-03-29T00:40:16.066Z,9.280111
2023-03-29T00:41:16.041Z,9.280065
2023-03-29T00:42:16.053Z,9.279842
2023-03-29T00:43:16.009Z,9.279743
2023-03-29T00:44:15.995Z,9.279821
2023-03-29T00:45:15.991Z,9.279767
2023-03-29T00:46:16.039Z,9.279815
2023-03-29T00:47:15.961Z,9.279861
2023-03-29T00:48:15.923Z,9.279849
2023-03-29T00:49:15.900Z,9.279870
2023-03-29T00:50:15.904Z,9.279863
2023-03-29T00:51:15.858Z,9.279925
2023-03-29T00:52:15.871Z,9.279938
2023-03-29T00:53:15.824Z,9.279958
2023-03-29T00:54:15.818Z,9.279936
2023-03-29T00:55:15.776Z,9.279922
2023-03-29T00:56:15.767Z,9.279887
2023-03-29T00:57:15.781Z,9.279995
2023-03-29T00:58:15.728Z,9.279933
2023-03-29T00:59:15.730Z,9.279857
2023-03-29T01:00:15.691Z,9.279922
2023-03-29T01:01:15.694Z,9.279988
2023-03-29T01:02:15.766Z,9.279957
2023-03-29T01:03:15.735Z,9.280028
2023-03-29T01:04:15.623Z,9.280149
2023-03-29T01:05:15.610Z,9.280156
2023-03-29T01:06:15.583Z,9.280037
2023-03-29T01:07:15.661Z,9.280043
2023-03-29T01:08:15.548Z,9.280027
2023-03-29T01:09:15.534Z,9.279969
2023-03-29T01:10:15.510Z,9.279919
2023-03-29T01:11:15.491Z,9.279852
2023-03-29T01:12:15.504Z,9.279855
2023-03-29T01:13:15.452Z,9.279862
2023-03-29T01:14:15.435Z,9.279781
2023-03-29T01:15:15.451Z,9.279881
2023-03-29T01:16:15.434Z,9.279943
2023-03-29T01:17:15.410Z,9.279992
2023-03-29T01:18:15.367Z,9.279953
2023-03-29T01:19:15.355Z,9.279959
2023-03-29T01:20:15.332Z,9.279907
2023-03-29T01:21:15.306Z,9.279840
2023-03-29T01:22:15.322Z,9.280166
2023-03-29T01:23:15.272Z,9.280131
2023-03-29T01:24:15.258Z,9.280080
2023-03-29T01:25:15.239Z,9.279948
2023-03-29T01:26:15.217Z,9.279897
2023-03-29T01:27:15.231Z,9.279971
2023-03-29T01:28:15.181Z,9.279915
2023-03-29T01:29:15.157Z,9.279981
2023-03-29T01:30:16.141Z,9.279989
2023-03-29T01:31:15.144Z,9.280006
2023-03-29T01:32:15.138Z,9.279941
2023-03-29T01:33:15.092Z,9.279771
2023-03-29T01:34:15.073Z,9.279764
2023-03-29T01:35:15.063Z,9.279870
2023-03-29T01:36:15.089Z,9.279975
2023-03-29T01:37:15.053Z,9.279994
2023-03-29T01:38:15.030Z,9.279938
2023-03-29T01:39:14.986Z,9.279975
2023-03-29T01:40:14.969Z,9.279907
2023-03-29T01:41:14.946Z,9.279956
2023-03-29T01:42:14.930Z,9.279855
2023-03-29T01:43:14.936Z,9.279919
2023-03-29T01:44:14.887Z,9.279962
2023-03-29T01:45:14.870Z,9.279965
2023-03-29T01:46:14.912Z,9.279975
2023-03-29T01:47:14.864Z,9.279978
2023-03-29T01:48:14.812Z,9.279947
2023-03-29T01:49:14.795Z,9.279952
2023-03-29T01:50:14.775Z,9.279968
2023-03-29T01:51:14.755Z,9.279974
2023-03-29T01:52:14.771Z,9.279964
2023-03-29T01:53:14.720Z,9.279927
2023-03-29T01:54:14.700Z,9.279838
2023-03-29T01:55:14.688Z,9.280057
2023-03-29T01:56:14.688Z,9.280037
2023-03-29T01:57:14.723Z,9.279823
2023-03-29T01:58:14.625Z,9.279950
2023-03-29T01:59:14.611Z,9.280031
2023-03-29T02:00:14.631Z,9.279984
2023-03-29T02:01:14.616Z,9.279917
2023-03-29T02:02:14.679Z,9.279887
2023-03-29T02:03:14.613Z,9.279916
2023-03-29T02:04:14.517Z,9.279945
2023-03-29T02:05:14.499Z,9.279855
2023-03-29T02:06:14.478Z,9.279871
2023-03-29T02:07:14.492Z,9.279898
2023-03-29T02:08:14.449Z,9.279927
2023-03-29T02:09:14.426Z,9.279883
2023-03-29T02:10:14.422Z,9.279943
2023-03-29T02:11:14.385Z,9.279938
2023-03-29T02:12:14.368Z,9.280024
2023-03-29T02:13:14.376Z,9.279997
2023-03-29T02:14:14.333Z,9.279909
2023-03-29T02:15:14.311Z,9.279980
2023-03-29T02:16:14.344Z,9.280046
2023-03-29T02:17:14.272Z,9.279838
2023-03-29T02:18:14.278Z,9.279866
2023-03-29T02:19:14.235Z,9.279905
2023-03-29T02:20:14.219Z,9.279985
2023-03-29T02:21:14.189Z,9.279924
2023-03-29T02:22:15.180Z,9.279866
2023-03-29T02:23:14.193Z,9.279990
2023-03-29T02:24:14.137Z,9.279949
2023-03-29T02:25:14.122Z,9.279956
2023-03-29T02:26:14.106Z,9.279945
2023-03-29T02:27:14.085Z,9.279961
2023-03-29T02:28:14.098Z,9.279858
2023-03-29T02:29:14.045Z,9.279860
2023-03-29T02:30:14.033Z,9.279917
2023-03-29T02:31:14.043Z,9.280036
2023-03-29T02:32:13.991Z,9.280012
2023-03-29T02:33:14.031Z,9.279905
2023-03-29T02:34:13.957Z,9.279929
2023-03-29T02:35:13.956Z,9.279995
2023-03-29T02:36:13.985Z,9.279989
2023-03-29T02:37:13.896Z,9.280050
2023-03-29T02:38:13.910Z,9.279946
2023-03-29T02:39:13.858Z,9.279989
2023-03-29T02:40:13.842Z,9.279917
2023-03-29T02:41:13.822Z,9.280025
2023-03-29T02:42:13.806Z,9.280005
2023-03-29T02:43:13.816Z,9.279938
2023-03-29T02:44:13.769Z,9.280071
2023-03-29T02:45:13.753Z,9.280135
2023-03-29T02:46:13.734Z,9.279775
2023-03-29T02:47:13.732Z,9.280198
2023-03-29T02:48:13.724Z,9.280040
2023-03-29T02:49:13.711Z,9.279936
2023-03-29T02:50:13.672Z,9.279934
2023-03-29T02:51:13.651Z,9.279885
2023-03-29T02:52:13.628Z,9.279862
2023-03-29T02:53:13.632Z,9.279933
2023-03-29T02:54:13.604Z,9.280050
2023-03-29T02:55:13.570Z,9.279950
2023-03-29T02:56:13.551Z,9.279961
2023-03-29T02:57:13.578Z,9.279958
2023-03-29T02:58:13.545Z,9.280024
2023-03-29T02:59:14.415Z,9.280028
2023-03-29T03:00:13.488Z,9.280057
2023-03-29T03:01:13.470Z,9.280083
2023-03-29T03:02:13.494Z,9.279898
2023-03-29T03:03:13.564Z,9.279855
2023-03-29T03:04:13.559Z,9.280099
2023-03-29T03:05:13.390Z,9.280080
2023-03-29T03:06:13.377Z,9.280041
2023-03-29T03:07:13.351Z,9.279870
2023-03-29T03:08:13.364Z,9.279792
2023-03-29T03:09:13.316Z,9.279928
2023-03-29T03:10:13.306Z,9.279992
2023-03-29T03:11:13.276Z,9.279931
2023-03-29T03:12:13.285Z,9.280038
2023-03-29T03:13:13.276Z,9.279993
2023-03-29T03:14:13.224Z,9.279996
2023-03-29T03:15:13.211Z,9.280035
2023-03-29T03:16:13.222Z,9.280100
2023-03-29T03:17:14.189Z,9.280081
2023-03-29T03:18:13.180Z,9.280049
2023-03-29T03:19:13.136Z,9.280128
2023-03-29T03:20:13.121Z,9.279937
2023-03-29T03:21:13.096Z,9.279990
2023-03-29T03:22:13.083Z,9.279994
2023-03-29T03:23:13.086Z,9.279920
2023-03-29T03:24:13.042Z,9.279908
2023-03-29T03:25:13.037Z,9.279935
2023-03-29T03:26:13.002Z,9.279903
2023-03-29T03:27:12.979Z,9.279929
2023-03-29T03:28:12.998Z,9.279938
2023-03-29T03:29:12.945Z,9.279915
2023-03-29T03:30:12.936Z,9.279918
2023-03-29T03:31:12.924Z,9.279830
2023-03-29T03:32:12.889Z,9.279840
2023-03-29T03:33:12.908Z,9.279965
2023-03-29T03:34:12.851Z,9.279998
2023-03-29T03:35:12.845Z,9.280004
2023-03-29T03:36:12.899Z,9.280089
2023-03-29T03:37:12.796Z,9.280026
2023-03-29T03:38:12.816Z,9.279959
2023-03-29T03:39:12.757Z,9.279942
2023-03-29T03:40:12.746Z,9.279951
2023-03-29T03:41:12.720Z,9.279926
2023-03-29T03:42:12.726Z,9.279882
2023-03-29T03:43:12.723Z,9.279868
2023-03-29T03:44:12.668Z,9.280113
2023-03-29T03:45:12.648Z,9.280080
2023-03-29T03:46:12.673Z,9.279919
2023-03-29T03:47:12.605Z,9.280216
2023-03-29T03:48:12.620Z,9.280256
2023-03-29T03:49:12.570Z,9.280126
2023-03-29T03:50:12.558Z,9.280109
2023-03-29T03:51:12.528Z,9.280122
2023-03-29T03:52:12.517Z,9.280103
2023-03-29T03:53:12.527Z,9.279957
2023-03-29T03:54:12.503Z,9.279976
2023-03-29T03:55:12.460Z,9.280011
2023-03-29T03:56:12.437Z,9.280144
2023-03-29T03:57:12.449Z,9.280112
2023-03-29T03:58:12.430Z,9.280034
2023-03-29T03:59:12.385Z,9.280118
2023-03-29T04:00:12.399Z,9.280107
2023-03-29T04:01:12.350Z,9.280151
2023-03-29T04:02:12.344Z,9.279983
2023-03-29T04:03:13.388Z,9.279911
2023-03-29T04:04:12.309Z,9.280021
2023-03-29T04:05:12.306Z,9.280073
2023-03-29T04:06:12.256Z,9.280132
2023-03-29T04:07:12.238Z,9.280142
2023-03-29T04:08:12.244Z,9.280221
2023-03-29T04:09:12.206Z,9.280122
2023-03-29T04:10:12.173Z,9.280105
2023-03-29T04:11:12.157Z,9.280104
2023-03-29T04:12:12.144Z,9.280166
2023-03-29T04:13:12.157Z,9.280031
2023-03-29T04:14:12.103Z,9.280131
2023-03-29T04:15:12.195Z,9.280094
2023-03-29T04:16:12.094Z,9.280107
2023-03-29T04:17:12.052Z,9.280104
2023-03-29T04:18:12.142Z,9.280058
2023-03-29T04:19:12.011Z,9.280068
2023-03-29T04:20:12.008Z,9.280010
2023-03-29T04:21:11.979Z,9.280071
2023-03-29T04:22:11.955Z,9.279935
2023-03-29T04:23:11.965Z,9.279967
2023-03-29T04:24:11.914Z,9.280092
2023-03-29T04:25:11.960Z,9.280101
2023-03-29T04:26:11.879Z,9.280154
2023-03-29T04:27:11.866Z,9.280138
2023-03-29T04:28:11.876Z,9.280023
2023-03-29T04:29:11.830Z,9.280099
2023-03-29T04:30:11.814Z,9.280113
2023-03-29T04:31:11.834Z,9.280124
2023-03-29T04:32:11.810Z,9.279970
2023-03-29T04:33:11.813Z,9.279969
2023-03-29T04:34:11.741Z,9.279969
2023-03-29T04:35:11.732Z,9.280112
2023-03-29T04:36:11.760Z,9.280070
2023-03-29T04:37:11.689Z,9.279992
2023-03-29T04:38:11.716Z,9.280033
2023-03-29T04:39:11.657Z,9.280005
2023-03-29T04:40:11.637Z,9.280025
2023-03-29T04:41:11.617Z,9.280049
2023-03-29T04:42:11.613Z,9.280145
2023-03-29T04:43:11.611Z,9.280045
2023-03-29T04:44:11.569Z,9.280054
2023-03-29T04:45:11.609Z,9.279926
2023-03-29T04:46:11.544Z,9.280029
2023-03-29T04:47:11.519Z,9.279981
2023-03-29T04:48:11.607Z,9.279968
2023-03-29T04:49:11.498Z,9.279888
2023-03-29T04:50:11.457Z,9.280018
2023-03-29T04:51:11.443Z,9.279869
2023-03-29T04:52:11.421Z,9.279928
2023-03-29T04:53:11.438Z,9.280015
2023-03-29T04:54:11.389Z,9.279969
2023-03-29T04:55:11.370Z,9.280094
2023-03-29T04:56:11.347Z,9.279968
2023-03-29T04:57:11.410Z,9.280056
2023-03-29T04:58:11.342Z,9.280048
2023-03-29T04:59:11.300Z,9.280085
2023-03-29T05:00:11.285Z,9.279961
2023-03-29T05:01:11.256Z,9.279988
2023-03-29T05:02:11.276Z,9.280024
2023-03-29T05:03:11.310Z,9.280027
2023-03-29T05:04:12.744Z,9.280008
2023-03-29T05:05:12.205Z,9.280090
2023-03-29T05:06:11.158Z,9.280141
2023-03-29T05:07:11.139Z,9.280059
2023-03-29T05:08:11.177Z,9.280075
2023-03-29T05:09:11.102Z,9.280014
2023-03-29T05:10:11.084Z,9.280030
2023-03-29T05:11:11.087Z,9.280100
2023-03-29T05:12:11.082Z,9.280037
2023-03-29T05:13:11.035Z,9.280002
2023-03-29T05:14:11.041Z,9.279986
2023-03-29T05:15:10.990Z,9.280020
2023-03-29T05:16:11.075Z,9.280071
2023-03-29T05:17:10.962Z,9.280058
2023-03-29T05:18:11.094Z,9.280075
2023-03-29T05:19:10.951Z,9.280056
2023-03-29T05:20:10.901Z,9.280058
2023-03-29T05:21:10.890Z,9.279985
2023-03-29T05:22:10.861Z,9.280066
2023-03-29T05:23:10.838Z,9.280054
2023-03-29T05:24:10.853Z,9.280081
2023-03-29T05:25:10.804Z,9.280005
2023-03-29T05:26:10.791Z,9.280006
2023-03-29T05:27:10.768Z,9.279938
2023-03-29T05:28:10.747Z,9.280034
2023-03-29T05:29:10.768Z,9.280019
2023-03-29T05:30:10.723Z,9.279978
2023-03-29T05:31:10.756Z,9.280095
2023-03-29T05:32:10.713Z,9.279967
2023-03-29T05:33:10.720Z,9.280131
2023-03-29T05:34:10.671Z,9.280074
2023-03-29T05:35:10.622Z,9.280100
2023-03-29T05:36:10.634Z,9.280132
2023-03-29T05:37:10.576Z,9.280087
2023-03-29T05:38:10.565Z,9.280115
2023-03-29T05:39:10.571Z,9.280104
2023-03-29T05:40:10.599Z,9.280124
2023-03-29T05:41:10.504Z,9.280093
2023-03-29T05:42:10.483Z,9.279984
2023-03-29T05:43:10.469Z,9.280046
2023-03-29T05:44:11.473Z,9.280192
2023-03-29T05:45:10.434Z,9.280198
2023-03-29T05:46:10.446Z,9.280062
2023-03-29T05:47:10.389Z,9.280089
2023-03-29T05:48:10.420Z,9.280027
2023-03-29T05:49:10.382Z,9.280023
2023-03-29T05:50:10.351Z,9.280167
2023-03-29T05:51:10.315Z,9.280128
2023-03-29T05:52:10.332Z,9.280049
2023-03-29T05:53:10.281Z,9.280144
2023-03-29T05:54:10.289Z,9.280113
2023-03-29T05:55:10.249Z,9.279956
2023-03-29T05:56:10.231Z,9.280112
2023-03-29T05:57:10.233Z,9.280163
2023-03-29T05:58:10.187Z,9.280063
2023-03-29T05:59:10.210Z,9.279990
2023-03-29T06:00:10.157Z,9.280092
2023-03-29T06:01:10.134Z,9.279985
2023-03-29T06:02:10.168Z,9.280069
2023-03-29T06:03:17.553Z,9.280128
2023-03-29T06:04:12.182Z,9.280121
2023-03-29T06:05:10.138Z,9.279917
2023-03-29T06:06:10.050Z,9.279978
2023-03-29T06:07:10.022Z,9.280026
2023-03-29T06:08:10.004Z,9.280204
2023-03-29T06:09:10.034Z,9.280185
2023-03-29T06:10:09.980Z,9.279997
2023-03-29T06:11:10.163Z,9.279969
2023-03-29T06:12:09.931Z,9.279922
2023-03-29T06:13:09.912Z,9.279887
2023-03-29T06:14:09.923Z,9.279839
2023-03-29T06:15:09.880Z,9.279937
2023-03-29T06:16:09.856Z,9.279972
2023-03-29T06:17:09.905Z,9.280007
2023-03-29T06:18:09.921Z,9.280037
2023-03-29T06:19:09.830Z,9.279986
2023-03-29T06:20:09.783Z,9.280117
2023-03-29T06:21:09.759Z,9.279955
2023-03-29T06:22:09.749Z,9.280115
2023-03-29T06:23:09.725Z,9.279994
2023-03-29T06:24:09.740Z,9.280247
2023-03-29T06:25:09.687Z,9.280226
2023-03-29T06:26:09.674Z,9.280007
2023-03-29T06:27:09.658Z,9.280021
2023-03-29T06:28:09.642Z,9.280132
2023-03-29T06:29:09.659Z,9.280048
2023-03-29T06:30:09.598Z,9.279921
2023-03-29T06:31:09.617Z,9.279871
2023-03-29T06:32:09.563Z,9.279890
2023-03-29T06:33:09.556Z,9.279878
2023-03-29T06:34:09.564Z,9.279848
2023-03-29T06:35:09.509Z,9.279825
2023-03-29T06:36:09.525Z,9.279901
2023-03-29T06:37:09.475Z,9.279890
2023-03-29T06:38:09.452Z,9.279964
2023-03-29T06:39:09.469Z,9.279882
2023-03-29T06:40:09.414Z,9.279849
2023-03-29T06:41:09.398Z,9.279884
2023-03-29T06:42:20.174Z,9.279857
2023-03-29T06:43:11.374Z,9.279902
2023-03-29T06:44:09.379Z,9.279982
2023-03-29T06:45:09.329Z,9.279948
2023-03-29T06:46:09.324Z,9.279911
2023-03-29T06:47:09.287Z,9.279961
2023-03-29T06:48:09.290Z,9.279890
2023-03-29T06:49:09.281Z,9.279897
2023-03-29T06:50:09.248Z,9.279886
2023-03-29T06:51:09.216Z,9.279864
2023-03-29T06:52:09.465Z,9.279826
2023-03-29T06:53:10.173Z,9.279896
2023-03-29T06:54:09.197Z,9.279876
2023-03-29T06:55:09.150Z,9.279876
2023-03-29T06:56:09.477Z,9.279911
2023-03-29T06:57:09.161Z,9.279847
2023-03-29T06:58:09.085Z,9.279868
2023-03-29T06:59:09.102Z,9.279876
2023-03-29T07:00:09.053Z,9.279902
2023-03-29T07:01:09.037Z,9.279922
2023-03-29T07:02:09.153Z,9.279909
2023-03-29T07:03:09.045Z,9.279840
2023-03-29T07:04:09.086Z,9.279878
2023-03-29T07:05:08.961Z,9.279972
2023-03-29T07:06:08.951Z,9.279862
2023-03-29T07:07:08.920Z,9.279850
2023-03-29T07:08:08.905Z,9.279938
2023-03-29T07:09:08.915Z,9.279860
2023-03-29T07:10:08.864Z,9.279868
2023-03-29T07:11:08.852Z,9.279879
2023-03-29T07:12:08.830Z,9.279818
2023-03-29T07:13:08.829Z,9.279813
2023-03-29T07:14:08.819Z,9.279829
2023-03-29T07:15:08.786Z,9.279839
2023-03-29T07:16:08.785Z,9.279791
2023-03-29T07:17:08.734Z,9.279793
2023-03-29T07:18:08.768Z,9.279786
2023-03-29T07:19:08.802Z,9.279706
2023-03-29T07:20:08.681Z,9.279737
2023-03-29T07:21:08.661Z,9.279722
2023-03-29T07:22:08.640Z,9.279707
2023-03-29T07:23:08.627Z,9.279670
2023-03-29T07:24:08.634Z,9.279667
2023-03-29T07:25:08.580Z,9.279778
2023-03-29T07:26:08.581Z,9.279835
2023-03-29T07:27:08.554Z,9.279788
2023-03-29T07:28:08.527Z,9.279782
2023-03-29T07:29:08.543Z,9.279756
2023-03-29T07:30:08.496Z,9.279651
2023-03-29T07:31:08.472Z,9.279689
2023-03-29T07:32:08.456Z,9.279848
2023-03-29T07:33:08.575Z,9.279820
2023-03-29T07:34:08.457Z,9.279621
2023-03-29T07:35:08.401Z,9.279696
2023-03-29T07:36:08.454Z,9.279619
2023-03-29T07:37:08.358Z,9.279773
2023-03-29T07:38:08.336Z,9.279790
2023-03-29T07:39:08.357Z,9.279828
2023-03-29T07:40:08.313Z,9.279803
2023-03-29T07:41:08.295Z,9.279697
2023-03-29T07:42:08.279Z,9.279756
2023-03-29T07:43:08.236Z,9.279696
2023-03-29T07:44:09.269Z,9.279675
2023-03-29T07:45:08.223Z,9.279710
2023-03-29T07:46:08.231Z,9.279858
2023-03-29T07:47:08.166Z,9.279790
2023-03-29T07:48:08.209Z,9.279776
2023-03-29T07:49:08.163Z,9.279729
2023-03-29T07:50:08.109Z,9.279777
2023-03-29T07:51:08.091Z,9.279796
2023-03-29T07:52:08.139Z,9.279764
2023-03-29T07:53:08.061Z,9.279790
2023-03-29T07:54:08.067Z,9.279984
2023-03-29T07:55:08.086Z,9.279847
2023-03-29T07:56:09.006Z,9.279900
2023-03-29T07:57:08.000Z,9.279899
2023-03-29T07:58:08.009Z,9.279798
2023-03-29T07:59:07.980Z,9.279837
2023-03-29T08:00:07.940Z,9.279797
2023-03-29T08:01:07.957Z,9.279801
2023-03-29T08:02:07.889Z,9.279868
2023-03-29T08:03:07.977Z,9.279934
2023-03-29T08:04:08.983Z,9.279924
2023-03-29T08:05:07.896Z,9.279998
2023-03-29T08:06:07.822Z,9.279886
2023-03-29T08:07:07.793Z,9.279891
2023-03-29T08:08:07.778Z,9.279950
2023-03-29T08:09:07.755Z,9.279821
2023-03-29T08:10:07.773Z,9.279885
2023-03-29T08:11:07.735Z,9.279813
2023-03-29T08:12:07.732Z,9.279819
2023-03-29T08:13:07.704Z,9.279826
2023-03-29T08:14:07.677Z,9.279897
2023-03-29T08:15:07.768Z,9.279945
2023-03-29T08:16:07.632Z,9.279990
2023-03-29T08:17:07.724Z,9.279983
2023-03-29T08:18:07.759Z,9.279971
2023-03-29T08:19:07.588Z,9.279955
2023-03-29T08:20:07.620Z,9.279904
2023-03-29T08:21:07.553Z,9.279982
2023-03-29T08:22:07.549Z,9.279946
2023-03-29T08:23:07.554Z,9.279780
2023-03-29T08:24:07.494Z,9.279861
2023-03-29T08:25:07.529Z,9.279979
2023-03-29T08:26:07.461Z,9.279966
2023-03-29T08:27:07.439Z,9.279889
2023-03-29T08:28:07.420Z,9.279934
2023-03-29T08:29:07.402Z,9.279956
2023-03-29T08:30:07.425Z,9.279918
2023-03-29T08:31:07.418Z,9.279944
2023-03-29T08:32:07.357Z,9.279960
2023-03-29T08:33:07.363Z,9.279946
2023-03-29T08:34:07.334Z,9.279829
2023-03-29T08:35:07.349Z,9.279838
2023-03-29T08:36:07.321Z,9.279830
2023-03-29T08:37:07.265Z,9.279738
2023-03-29T08:38:07.252Z,9.279807
2023-03-29T08:39:07.227Z,9.279799
2023-03-29T08:40:07.245Z,9.279906
2023-03-29T08:41:07.192Z,9.279920
2023-03-29T08:42:07.171Z,9.279872
2023-03-29T08:43:07.181Z,9.279820
2023-03-29T08:44:07.144Z,9.279891
2023-03-29T08:45:07.151Z,9.279778
2023-03-29T08:46:07.150Z,9.279885
2023-03-29T08:47:07.085Z,9.279824
2023-03-29T08:48:07.103Z,9.279854
2023-03-29T08:49:07.047Z,9.279901
2023-03-29T08:50:07.067Z,9.279867
2023-03-29T08:51:09.836Z,9.279951
2023-03-29T08:52:07.995Z,9.279928
2023-03-29T08:53:06.986Z,9.279932
2023-03-29T08:54:06.963Z,9.279906
2023-03-29T08:55:06.970Z,9.279893
2023-03-29T08:56:06.921Z,9.279966
2023-03-29T08:57:06.929Z,9.279940
2023-03-29T08:58:06.891Z,9.279906
2023-03-29T08:59:06.875Z,9.279887
2023-03-29T09:00:06.900Z,9.279887
2023-03-29T09:01:06.838Z,9.279876
2023-03-29T09:02:06.900Z,9.279889
2023-03-29T09:03:06.865Z,9.279802
2023-03-29T09:04:06.939Z,9.279904
2023-03-29T09:05:06.795Z,9.279994
2023-03-29T09:06:06.741Z,9.279948
2023-03-29T09:07:06.728Z,9.279913
2023-03-29T09:08:06.750Z,9.279933
2023-03-29T09:09:06.697Z,9.279909
2023-03-29T09:10:06.711Z,9.279894
2023-03-29T09:11:06.676Z,9.279916
2023-03-29T09:12:06.643Z,9.279900
2023-03-29T09:13:06.672Z,9.279916
2023-03-29T09:14:06.608Z,9.279998
2023-03-29T09:15:07.423Z,9.279950
2023-03-29T09:16:06.579Z,9.279887
2023-03-29T09:17:06.558Z,9.279928
2023-03-29T09:18:06.586Z,9.279733
2023-03-29T09:19:06.552Z,9.279886
2023-03-29T09:20:06.544Z,9.279938
2023-03-29T09:21:06.495Z,9.279839
2023-03-29T09:22:06.474Z,9.279880
2023-03-29T09:23:06.454Z,9.279910
2023-03-29T09:24:06.437Z,9.279975
2023-03-29T09:25:06.449Z,9.279999
2023-03-29T09:26:06.411Z,9.279961
2023-03-29T09:27:06.391Z,9.279930
2023-03-29T09:28:06.362Z,9.279891
2023-03-29T09:29:08.339Z,9.279943
2023-03-29T09:30:06.363Z,9.279977
2023-03-29T09:31:06.401Z,9.279974
2023-03-29T09:32:06.391Z,9.279905
2023-03-29T09:33:06.375Z,9.280005
2023-03-29T09:34:06.261Z,9.280040
2023-03-29T09:35:06.284Z,9.280001
2023-03-29T09:36:06.290Z,9.279979
2023-03-29T09:37:06.220Z,9.279902
2023-03-29T09:38:06.198Z,9.279865
2023-03-29T09:39:06.185Z,9.279868
2023-03-29T09:40:06.194Z,9.279878
2023-03-29T09:41:06.256Z,9.279895
2023-03-29T09:42:06.133Z,9.279884
2023-03-29T09:43:06.105Z,9.279862
2023-03-29T09:44:06.087Z,9.279895
2023-03-29T09:45:06.119Z,9.279951
2023-03-29T09:46:06.112Z,9.279965
2023-03-29T09:47:06.029Z,9.280023
2023-03-29T09:48:06.052Z,9.280025
2023-03-29T09:49:05.999Z,9.280157
2023-03-29T09:50:08.445Z,9.280081
2023-03-29T09:51:07.005Z,9.280087
2023-03-29T09:52:05.942Z,9.279929
2023-03-29T09:53:05.935Z,9.279917
2023-03-29T09:54:05.930Z,9.279953
2023-03-29T09:55:05.892Z,9.280012
2023-03-29T09:56:05.910Z,9.280106
2023-03-29T09:57:05.887Z,9.280195
2023-03-29T09:58:05.859Z,9.279830
2023-03-29T09:59:05.827Z,9.279803
2023-03-29T10:00:05.872Z,9.279937
2023-03-29T10:01:06.209Z,9.279903
2023-03-29T10:02:05.771Z,9.279891
2023-03-29T10:03:06.978Z,9.279919
2023-03-29T10:04:05.812Z,9.279900
2023-03-29T10:05:05.718Z,9.279992
2023-03-29T10:06:05.731Z,9.280071
2023-03-29T10:07:05.702Z,9.280207
2023-03-29T10:08:05.661Z,9.280112
2023-03-29T10:09:05.647Z,9.279959
2023-03-29T10:10:05.621Z,9.279879
2023-03-29T10:11:05.684Z,9.279983
2023-03-29T10:12:05.594Z,9.279967
2023-03-29T10:13:05.571Z,9.280021
2023-03-29T10:14:06.291Z,9.280103
2023-03-29T10:15:05.862Z,9.280053
2023-03-29T10:16:05.567Z,9.279948
2023-03-29T10:17:05.505Z,9.280048
2023-03-29T10:18:05.482Z,9.279929
2023-03-29T10:19:05.480Z,9.279950
2023-03-29T10:20:06.392Z,9.279915
2023-03-29T10:21:05.673Z,9.279906
2023-03-29T10:22:05.420Z,9.279897
2023-03-29T10:23:05.378Z,9.279960
2023-03-29T10:24:05.356Z,9.279893
2023-03-29T10:25:05.350Z,9.279951
2023-03-29T10:26:05.342Z,9.279959
2023-03-29T10:27:05.294Z,9.279900
2023-03-29T10:28:05.306Z,9.279926
2023-03-29T10:29:05.262Z,9.279939
2023-03-29T10:30:05.235Z,9.279944
2023-03-29T10:31:05.515Z,9.279949
2023-03-29T10:32:05.240Z,9.279921
2023-03-29T10:33:05.312Z,9.279947
2023-03-29T10:34:05.220Z,9.280017
2023-03-29T10:35:05.146Z,9.279937
2023-03-29T10:36:05.201Z,9.280018
2023-03-29T10:37:05.097Z,9.279964
2023-03-29T10:38:05.090Z,9.279988
2023-03-29T10:39:06.277Z,9.279967
2023-03-29T10:40:06.030Z,9.279896
2023-03-29T10:41:05.095Z,9.279978
2023-03-29T10:42:05.054Z,9.280020
2023-03-29T10:43:04.966Z,9.279989
2023-03-29T10:44:04.968Z,9.279991
2023-03-29T10:45:04.949Z,9.280045
2023-03-29T10:46:04.988Z,9.279977
2023-03-29T10:47:04.887Z,9.279924
2023-03-29T10:48:04.923Z,9.279936
2023-03-29T10:49:04.855Z,9.279949
2023-03-29T10:50:04.835Z,9.280016
2023-03-29T10:51:05.179Z,9.280021
2023-03-29T10:52:04.785Z,9.280004
2023-03-29T10:53:04.775Z,9.280063
2023-03-29T10:54:04.751Z,9.280042
2023-03-29T10:55:04.725Z,9.279966
2023-03-29T10:56:04.738Z,9.279972
2023-03-29T10:57:04.730Z,9.279950
2023-03-29T10:58:04.665Z,9.280014
2023-03-29T10:59:04.644Z,9.280011
2023-03-29T11:00:04.633Z,9.279948
2023-03-29T11:01:04.969Z,9.280037
2023-03-29T11:02:04.601Z,9.280011
2023-03-29T11:03:04.657Z,9.280035
2023-03-29T11:04:04.575Z,9.280026
2023-03-29T11:05:04.544Z,9.279944
2023-03-29T11:06:04.534Z,9.280016
2023-03-29T11:07:04.493Z,9.279993
2023-03-29T11:08:04.493Z,9.280050
2023-03-29T11:09:04.457Z,9.280147
2023-03-29T11:10:04.447Z,9.279984
2023-03-29T11:11:04.539Z,9.280023
2023-03-29T11:12:15.011Z,9.280002
2023-03-29T11:13:06.381Z,9.279953
2023-03-29T11:14:04.363Z,9.279810
2023-03-29T11:15:04.335Z,9.280076
2023-03-29T11:16:04.360Z,9.279959
2023-03-29T11:17:04.298Z,9.279879
2023-03-29T11:18:04.315Z,9.279912
2023-03-29T11:19:04.255Z,9.279920
2023-03-29T11:20:05.269Z,9.280047
2023-03-29T11:21:10.118Z,9.280151
2023-03-29T11:22:06.206Z,9.280165
2023-03-29T11:23:04.183Z,9.280178
2023-03-29T11:24:04.163Z,9.280008
2023-03-29T11:25:04.148Z,9.280030
2023-03-29T11:26:04.151Z,9.280152
2023-03-29T11:27:04.105Z,9.280183
2023-03-29T11:28:04.083Z,9.280010
2023-03-29T11:29:04.070Z,9.279905
2023-03-29T11:30:04.049Z,9.279944
2023-03-29T11:31:04.328Z,9.279970
2023-03-29T11:32:04.004Z,9.279986
2023-03-29T11:33:04.043Z,9.280134
2023-03-29T11:34:03.968Z,9.280146
2023-03-29T11:35:03.954Z,9.280083
2023-03-29T11:36:03.971Z,9.280168
2023-03-29T11:37:03.912Z,9.280076
2023-03-29T11:38:03.885Z,9.279935
2023-03-29T11:39:03.872Z,9.280181
2023-03-29T11:40:03.851Z,9.280106
2023-03-29T11:41:04.204Z,9.279972
2023-03-29T11:42:03.813Z,9.279931
2023-03-29T11:43:03.793Z,9.280017
2023-03-29T11:44:03.782Z,9.280192